sensor_id;sensor_type;location;lat;lon;timestamp;pressure;altitude;pressure_sealevel;temperature;humidity
74230;BME280;62589;12.568;99.958;2022-11-30T00:01:20;100847.72;;;32.80;59.53
74230;BME280;62589;12.568;99.958;2022-11-30T00:03:50;100851.31;;;32.84;59.32
74230;BME280;62589;12.568;99.958;2022-11-30T00:06:18;100862.84;;;32.86;59.25
74230;BME280;62589;12.568;99.958;2022-11-30T00:08:52;100868.03;;;32.91;59.23
74230;BME280;62589;12.568;99.958;2022-11-30T00:11:20;100871.66;;;32.95;58.91
74230;BME280;62589;12.568;99.958;2022-11-30T00:13:48;100876.47;;;33.01;58.90
74230;BME280;62589;12.568;99.958;2022-11-30T00:16:14;100876.91;;;33.03;58.43
74230;BME280;62589;12.568;99.958;2022-11-30T00:18:41;100875.75;;;33.11;58.81
74230;BME280;62589;12.568;99.958;2022-11-30T00:21:11;100878.53;;;33.15;58.74
74230;BME280;62589;12.568;99.958;2022-11-30T00:23:40;100878.22;;;33.24;58.31
74230;BME280;62589;12.568;99.958;2022-11-30T00:26:11;100888.59;;;33.30;58.15
74230;BME280;62589;12.568;99.958;2022-11-30T00:28:38;100885.06;;;33.37;58.21
74230;BME280;62589;12.568;99.958;2022-11-30T00:31:09;100885.53;;;33.46;58.02
74230;BME280;62589;12.568;99.958;2022-11-30T00:33:37;100887.56;;;33.56;57.79
74230;BME280;62589;12.568;99.958;2022-11-30T00:36:07;100887.59;;;33.63;57.41
74230;BME280;62589;12.568;99.958;2022-11-30T00:38:36;100894.78;;;33.71;57.77
74230;BME280;62589;12.568;99.958;2022-11-30T00:41:03;100896.44;;;33.79;57.63
74230;BME280;62589;12.568;99.958;2022-11-30T00:43:30;100902.03;;;33.87;57.18
74230;BME280;62589;12.568;99.958;2022-11-30T00:45:57;100901.28;;;33.97;56.95
74230;BME280;62589;12.568;99.958;2022-11-30T00:48:24;100901.69;;;34.02;56.53
74230;BME280;62589;12.568;99.958;2022-11-30T00:50:52;100905.28;;;34.03;56.58
74230;BME280;62589;12.568;99.958;2022-11-30T00:53:19;100911.25;;;34.12;56.13
74230;BME280;62589;12.568;99.958;2022-11-30T00:55:46;100916.47;;;34.17;55.95
74230;BME280;62589;12.568;99.958;2022-11-30T00:58:14;100906.53;;;34.23;55.65
74230;BME280;62589;12.568;99.958;2022-11-30T01:00:41;100920.91;;;34.29;55.25
74230;BME280;62589;12.568;99.958;2022-11-30T01:03:08;100921.72;;;34.36;55.31
74230;BME280;62589;12.568;99.958;2022-11-30T01:05:35;100918.53;;;34.41;55.58
74230;BME280;62589;12.568;99.958;2022-11-30T01:08:04;100936.88;;;34.50;55.58
74230;BME280;62589;12.568;99.958;2022-11-30T01:10:33;100932.91;;;34.58;55.77
74230;BME280;62589;12.568;99.958;2022-11-30T01:13:00;100944.47;;;34.67;55.69
74230;BME280;62589;12.568;99.958;2022-11-30T01:15:27;100948.84;;;34.75;55.97
74230;BME280;62589;12.568;99.958;2022-11-30T01:17:54;100945.31;;;34.85;55.29
74230;BME280;62589;12.568;99.958;2022-11-30T01:20:21;100959.22;;;34.92;55.25
74230;BME280;62589;12.568;99.958;2022-11-30T01:22:47;100966.81;;;35.02;54.79
74230;BME280;62589;12.568;99.958;2022-11-30T01:25:14;100974.41;;;35.09;54.63
74230;BME280;62589;12.568;99.958;2022-11-30T01:27:41;100964.00;;;35.13;55.03
74230;BME280;62589;12.568;99.958;2022-11-30T01:30:08;100966.41;;;35.22;54.67
74230;BME280;62589;12.568;99.958;2022-11-30T01:32:35;100972.03;;;35.29;54.80
74230;BME280;62589;12.568;99.958;2022-11-30T01:35:02;100979.97;;;35.34;54.26
74230;BME280;62589;12.568;99.958;2022-11-30T01:37:29;100983.16;;;35.43;54.71
74230;BME280;62589;12.568;99.958;2022-11-30T01:39:56;100981.97;;;35.51;54.73
74230;BME280;62589;12.568;99.958;2022-11-30T01:42:23;100974.34;;;35.62;53.91
74230;BME280;62589;12.568;99.958;2022-11-30T01:44:56;100976.31;;;35.72;54.19
74230;BME280;62589;12.568;99.958;2022-11-30T01:47:41;100975.44;;;35.97;53.36
74230;BME280;62589;12.568;99.958;2022-11-30T01:50:20;100973.84;;;35.99;53.11
74230;BME280;62589;12.568;99.958;2022-11-30T01:52:52;100971.44;;;36.05;52.99
74230;BME280;62589;12.568;99.958;2022-11-30T01:55:34;100972.19;;;36.16;52.89
74230;BME280;62589;12.568;99.958;2022-11-30T01:58:06;100981.34;;;36.27;52.42
74230;BME280;62589;12.568;99.958;2022-11-30T02:00:34;100983.59;;;36.54;51.58
74230;BME280;62589;12.568;99.958;2022-11-30T02:03:13;100987.59;;;36.49;52.09
74230;BME280;62589;12.568;99.958;2022-11-30T02:05:43;100993.13;;;36.60;51.62
74230;BME280;62589;12.568;99.958;2022-11-30T02:08:11;100985.09;;;36.65;51.54
74230;BME280;62589;12.568;99.958;2022-11-30T02:10:42;100986.28;;;36.75;51.50
74230;BME280;62589;12.568;99.958;2022-11-30T02:25:09;100993.09;;;37.22;50.10
74230;BME280;62589;12.568;99.958;2022-11-30T02:30:33;100989.81;;;37.31;48.95
74230;BME280;62589;12.568;99.958;2022-11-30T02:33:20;100986.16;;;37.37;49.55
74230;BME280;62589;12.568;99.958;2022-11-30T02:35:50;100985.25;;;37.47;48.90
74230;BME280;62589;12.568;99.958;2022-11-30T02:38:23;100992.34;;;37.59;48.74
74230;BME280;62589;12.568;99.958;2022-11-30T02:40:50;100982.66;;;37.67;48.34
74230;BME280;62589;12.568;99.958;2022-11-30T02:43:20;100994.19;;;37.76;48.27
74230;BME280;62589;12.568;99.958;2022-11-30T02:45:56;100997.69;;;37.84;46.53
74230;BME280;62589;12.568;99.958;2022-11-30T02:51:29;100998.31;;;37.99;45.90
74230;BME280;62589;12.568;99.958;2022-11-30T02:53:57;100990.19;;;38.08;45.56
74230;BME280;62589;12.568;99.958;2022-11-30T02:56:24;100995.75;;;38.15;44.57
74230;BME280;62589;12.568;99.958;2022-11-30T02:58:51;100986.88;;;38.20;44.19
74230;BME280;62589;12.568;99.958;2022-11-30T03:01:17;100991.53;;;38.30;43.92
74230;BME280;62589;12.568;99.958;2022-11-30T03:03:44;100992.66;;;38.36;44.33
74230;BME280;62589;12.568;99.958;2022-11-30T03:06:10;100991.38;;;38.41;44.55
74230;BME280;62589;12.568;99.958;2022-11-30T03:08:36;100981.63;;;38.49;44.49
74230;BME280;62589;12.568;99.958;2022-11-30T03:11:03;100983.94;;;38.58;43.94
74230;BME280;62589;12.568;99.958;2022-11-30T03:13:31;100987.09;;;38.63;44.04
74230;BME280;62589;12.568;99.958;2022-11-30T03:15:57;100982.19;;;38.67;43.72
74230;BME280;62589;12.568;99.958;2022-11-30T03:18:24;100974.09;;;38.73;43.74
74230;BME280;62589;12.568;99.958;2022-11-30T03:20:50;100980.41;;;38.80;43.83
74230;BME280;62589;12.568;99.958;2022-11-30T03:23:16;100977.91;;;38.86;43.11
74230;BME280;62589;12.568;99.958;2022-11-30T03:25:43;100981.84;;;38.89;42.94
74230;BME280;62589;12.568;99.958;2022-11-30T03:28:09;100977.78;;;38.93;42.52
74230;BME280;62589;12.568;99.958;2022-11-30T03:30:36;100981.31;;;38.97;42.50
74230;BME280;62589;12.568;99.958;2022-11-30T03:33:02;100973.66;;;39.01;42.47
74230;BME280;62589;12.568;99.958;2022-11-30T03:35:28;100974.81;;;39.04;42.54
74230;BME280;62589;12.568;99.958;2022-11-30T03:37:55;100968.69;;;39.09;42.86
74230;BME280;62589;12.568;99.958;2022-11-30T03:40:22;100972.03;;;39.04;43.13
74230;BME280;62589;12.568;99.958;2022-11-30T03:42:48;100966.25;;;39.11;43.18
74230;BME280;62589;12.568;99.958;2022-11-30T03:45:15;100962.59;;;39.14;42.94
74230;BME280;62589;12.568;99.958;2022-11-30T03:47:42;100962.53;;;39.17;43.00
74230;BME280;62589;12.568;99.958;2022-11-30T03:50:08;100961.31;;;39.18;42.61
74230;BME280;62589;12.568;99.958;2022-11-30T03:52:36;100954.84;;;39.22;42.62
74230;BME280;62589;12.568;99.958;2022-11-30T03:55:02;100952.41;;;39.24;42.10
74230;BME280;62589;12.568;99.958;2022-11-30T03:57:29;100961.91;;;39.30;42.23
74230;BME280;62589;12.568;99.958;2022-11-30T03:59:55;100960.69;;;39.31;42.11
74230;BME280;62589;12.568;99.958;2022-11-30T04:02:21;100954.22;;;39.34;42.79
74230;BME280;62589;12.568;99.958;2022-11-30T04:04:48;100938.16;;;39.34;42.92
74230;BME280;62589;12.568;99.958;2022-11-30T04:07:14;100939.31;;;39.37;42.93
74230;BME280;62589;12.568;99.958;2022-11-30T04:09:41;100938.81;;;39.42;43.19
74230;BME280;62589;12.568;99.958;2022-11-30T04:12:07;100937.59;;;39.43;42.52
74230;BME280;62589;12.568;99.958;2022-11-30T04:14:34;100936.78;;;39.46;41.65
74230;BME280;62589;12.568;99.958;2022-11-30T04:17:00;100925.53;;;39.46;41.96
74230;BME280;62589;12.568;99.958;2022-11-30T04:19:26;100925.81;;;39.51;41.79
74230;BME280;62589;12.568;99.958;2022-11-30T04:21:53;100922.19;;;39.51;42.24
74230;BME280;62589;12.568;99.958;2022-11-30T04:24:19;100908.50;;;39.53;41.56
74230;BME280;62589;12.568;99.958;2022-11-30T04:26:46;100911.31;;;39.53;42.33
74230;BME280;62589;12.568;99.958;2022-11-30T04:29:12;100905.34;;;39.51;41.90
74230;BME280;62589;12.568;99.958;2022-11-30T04:31:39;100909.31;;;39.54;42.18
74230;BME280;62589;12.568;99.958;2022-11-30T04:34:05;100905.19;;;39.58;42.49
74230;BME280;62589;12.568;99.958;2022-11-30T04:36:31;100905.94;;;39.62;42.22
74230;BME280;62589;12.568;99.958;2022-11-30T04:38:58;100906.72;;;39.63;41.81
74230;BME280;62589;12.568;99.958;2022-11-30T04:41:24;100905.06;;;39.65;41.41
74230;BME280;62589;12.568;99.958;2022-11-30T04:43:51;100892.97;;;39.68;40.78
74230;BME280;62589;12.568;99.958;2022-11-30T04:46:17;100889.63;;;39.73;40.74
74230;BME280;62589;12.568;99.958;2022-11-30T04:48:43;100896.03;;;39.74;40.58
74230;BME280;62589;12.568;99.958;2022-11-30T04:51:10;100889.84;;;39.82;40.19
74230;BME280;62589;12.568;99.958;2022-11-30T04:53:37;100885.81;;;39.83;39.86
74230;BME280;62589;12.568;99.958;2022-11-30T04:56:06;100880.19;;;39.83;40.76
74230;BME280;62589;12.568;99.958;2022-11-30T04:58:33;100874.13;;;39.85;40.94
74230;BME280;62589;12.568;99.958;2022-11-30T05:01:00;100870.47;;;39.88;40.82
74230;BME280;62589;12.568;99.958;2022-11-30T05:03:26;100864.41;;;39.90;40.55
74230;BME280;62589;12.568;99.958;2022-11-30T05:05:52;100861.50;;;39.93;41.02
74230;BME280;62589;12.568;99.958;2022-11-30T05:08:19;100857.38;;;39.98;40.37
74230;BME280;62589;12.568;99.958;2022-11-30T05:10:50;100856.09;;;40.02;40.18
74230;BME280;62589;12.568;99.958;2022-11-30T05:13:17;100861.28;;;40.04;39.17
74230;BME280;62589;12.568;99.958;2022-11-30T05:15:44;100849.25;;;40.03;39.67
74230;BME280;62589;12.568;99.958;2022-11-30T05:18:11;100848.81;;;40.05;39.20
74230;BME280;62589;12.568;99.958;2022-11-30T05:20:38;100843.09;;;40.08;39.39
74230;BME280;62589;12.568;99.958;2022-11-30T05:23:04;100835.47;;;40.09;40.28
74230;BME280;62589;12.568;99.958;2022-11-30T05:25:30;100827.69;;;40.13;40.14
74230;BME280;62589;12.568;99.958;2022-11-30T05:27:57;100825.25;;;40.15;40.51
74230;BME280;62589;12.568;99.958;2022-11-30T05:30:23;100824.81;;;40.16;40.74
74230;BME280;62589;12.568;99.958;2022-11-30T05:32:52;100814.78;;;40.15;39.30
74230;BME280;62589;12.568;99.958;2022-11-30T05:35:18;100818.81;;;40.14;40.11
74230;BME280;62589;12.568;99.958;2022-11-30T05:37:45;100812.25;;;40.21;39.10
74230;BME280;62589;12.568;99.958;2022-11-30T05:40:11;100809.78;;;40.23;39.52
74230;BME280;62589;12.568;99.958;2022-11-30T05:42:38;100813.03;;;40.22;39.02
74230;BME280;62589;12.568;99.958;2022-11-30T05:45:05;100803.63;;;40.12;38.65
74230;BME280;62589;12.568;99.958;2022-11-30T05:47:31;100795.19;;;40.12;38.38
74230;BME280;62589;12.568;99.958;2022-11-30T05:49:58;100805.91;;;40.01;38.12
74230;BME280;62589;12.568;99.958;2022-11-30T05:52:24;100800.38;;;39.97;38.95
74230;BME280;62589;12.568;99.958;2022-11-30T05:54:51;100800.44;;;39.94;39.55
74230;BME280;62589;12.568;99.958;2022-11-30T05:57:17;100788.41;;;39.93;39.72
74230;BME280;62589;12.568;99.958;2022-11-30T05:59:43;100794.47;;;39.92;40.34
74230;BME280;62589;12.568;99.958;2022-11-30T06:02:10;100781.31;;;39.89;39.94
74230;BME280;62589;12.568;99.958;2022-11-30T06:04:36;100781.81;;;39.83;39.46
74230;BME280;62589;12.568;99.958;2022-11-30T06:07:03;100772.88;;;39.89;39.95
74230;BME280;62589;12.568;99.958;2022-11-30T06:09:29;100778.28;;;39.79;39.65
74230;BME280;62589;12.568;99.958;2022-11-30T06:11:55;100776.69;;;39.78;39.27
74230;BME280;62589;12.568;99.958;2022-11-30T06:14:22;100766.06;;;39.70;39.42
74230;BME280;62589;12.568;99.958;2022-11-30T06:16:48;100768.97;;;39.66;39.71
74230;BME280;62589;12.568;99.958;2022-11-30T06:19:15;100756.56;;;39.64;40.11
74230;BME280;62589;12.568;99.958;2022-11-30T06:21:41;100752.25;;;39.59;40.49
74230;BME280;62589;12.568;99.958;2022-11-30T06:24:08;100753.91;;;39.57;40.74
74230;BME280;62589;12.568;99.958;2022-11-30T06:26:34;100748.44;;;39.49;40.65
74230;BME280;62589;12.568;99.958;2022-11-30T06:29:01;100744.09;;;39.48;40.39
74230;BME280;62589;12.568;99.958;2022-11-30T06:31:27;100734.53;;;39.42;41.04
74230;BME280;62589;12.568;99.958;2022-11-30T06:33:56;100737.06;;;39.37;41.52
74230;BME280;62589;12.568;99.958;2022-11-30T06:36:23;100731.53;;;39.33;40.97
74230;BME280;62589;12.568;99.958;2022-11-30T06:38:50;100735.56;;;39.32;40.57
74230;BME280;62589;12.568;99.958;2022-11-30T06:41:17;100733.09;;;39.34;41.06
74230;BME280;62589;12.568;99.958;2022-11-30T06:43:44;100721.25;;;39.27;40.18
74230;BME280;62589;12.568;99.958;2022-11-30T06:46:10;100718.78;;;39.29;40.73
74230;BME280;62589;12.568;99.958;2022-11-30T06:48:37;100711.16;;;39.29;40.25
74230;BME280;62589;12.568;99.958;2022-11-30T06:51:08;100707.13;;;39.30;40.52
74230;BME280;62589;12.568;99.958;2022-11-30T06:53:35;100709.84;;;39.34;40.72
74230;BME280;62589;12.568;99.958;2022-11-30T06:56:05;100688.16;;;39.34;40.14
74230;BME280;62589;12.568;99.958;2022-11-30T06:58:32;100685.28;;;39.38;39.46
74230;BME280;62589;12.568;99.958;2022-11-30T07:00:59;100684.06;;;39.39;40.03
74230;BME280;62589;12.568;99.958;2022-11-30T07:03:26;100684.38;;;39.44;40.36
74230;BME280;62589;12.568;99.958;2022-11-30T07:05:52;100679.00;;;39.50;40.19
74230;BME280;62589;12.568;99.958;2022-11-30T07:08:19;100673.53;;;39.43;40.87
74230;BME280;62589;12.568;99.958;2022-11-30T07:10:46;100666.56;;;39.31;41.31
74230;BME280;62589;12.568;99.958;2022-11-30T07:13:15;100667.38;;;39.32;41.28
74230;BME280;62589;12.568;99.958;2022-11-30T07:15:42;100661.06;;;39.28;41.43
74230;BME280;62589;12.568;99.958;2022-11-30T07:18:10;100654.97;;;39.13;41.11
74230;BME280;62589;12.568;99.958;2022-11-30T07:20:37;100650.75;;;39.05;42.17
74230;BME280;62589;12.568;99.958;2022-11-30T07:23:05;100644.78;;;39.03;41.60
74230;BME280;62589;12.568;99.958;2022-11-30T07:25:43;100636.00;;;39.01;41.78
74230;BME280;62589;12.568;99.958;2022-11-30T07:28:21;100629.19;;;38.98;42.25
74230;BME280;62589;12.568;99.958;2022-11-30T07:30:48;100622.50;;;38.92;41.61
74230;BME280;62589;12.568;99.958;2022-11-30T07:33:14;100616.16;;;38.88;41.87
74230;BME280;62589;12.568;99.958;2022-11-30T07:35:41;100616.84;;;38.76;42.32
74230;BME280;62589;12.568;99.958;2022-11-30T07:38:07;100611.66;;;38.74;42.68
74230;BME280;62589;12.568;99.958;2022-11-30T07:40:33;100614.03;;;38.76;42.38
74230;BME280;62589;12.568;99.958;2022-11-30T07:43:00;100598.56;;;38.68;42.78
74230;BME280;62589;12.568;99.958;2022-11-30T07:45:26;100591.38;;;38.67;42.43
74230;BME280;62589;12.568;99.958;2022-11-30T07:47:53;100585.44;;;38.65;42.72
74230;BME280;62589;12.568;99.958;2022-11-30T07:50:19;100587.03;;;38.66;43.35
74230;BME280;62589;12.568;99.958;2022-11-30T07:52:45;100580.94;;;38.67;42.86
74230;BME280;62589;12.568;99.958;2022-11-30T07:55:12;100572.53;;;38.67;42.97
74230;BME280;62589;12.568;99.958;2022-11-30T07:57:38;100567.81;;;38.64;43.32
74230;BME280;62589;12.568;99.958;2022-11-30T08:00:05;100562.34;;;38.57;43.28
74230;BME280;62589;12.568;99.958;2022-11-30T08:02:32;100560.69;;;38.60;43.08
74230;BME280;62589;12.568;99.958;2022-11-30T08:04:58;100562.78;;;38.56;42.78
74230;BME280;62589;12.568;99.958;2022-11-30T08:07:24;100555.56;;;38.55;42.99
74230;BME280;62589;12.568;99.958;2022-11-30T08:09:51;100548.88;;;38.48;43.12
74230;BME280;62589;12.568;99.958;2022-11-30T08:12:18;100551.53;;;38.36;43.46
74230;BME280;62589;12.568;99.958;2022-11-30T08:14:44;100539.41;;;38.42;43.12
74230;BME280;62589;12.568;99.958;2022-11-30T08:17:11;100531.47;;;38.37;43.21
74230;BME280;62589;12.568;99.958;2022-11-30T08:19:37;100537.94;;;38.34;43.99
74230;BME280;62589;12.568;99.958;2022-11-30T08:22:03;100537.94;;;38.34;43.11
74230;BME280;62589;12.568;99.958;2022-11-30T08:24:30;100528.75;;;38.34;43.69
74230;BME280;62589;12.568;99.958;2022-11-30T08:26:56;100526.81;;;38.31;44.00
74230;BME280;62589;12.568;99.958;2022-11-30T08:29:22;100535.59;;;38.33;44.01
74230;BME280;62589;12.568;99.958;2022-11-30T08:31:49;100528.31;;;38.35;43.67
74230;BME280;62589;12.568;99.958;2022-11-30T08:34:15;100538.25;;;38.20;43.89
74230;BME280;62589;12.568;99.958;2022-11-30T08:36:42;100533.69;;;38.26;43.72
74230;BME280;62589;12.568;99.958;2022-11-30T08:39:11;100532.59;;;38.24;43.56
74230;BME280;62589;12.568;99.958;2022-11-30T08:41:38;100524.06;;;38.27;43.25
74230;BME280;62589;12.568;99.958;2022-11-30T08:44:04;100535.28;;;38.27;43.34
74230;BME280;62589;12.568;99.958;2022-11-30T08:46:31;100530.47;;;38.28;42.98
74230;BME280;62589;12.568;99.958;2022-11-30T08:48:57;100522.06;;;38.28;43.15
74230;BME280;62589;12.568;99.958;2022-11-30T08:51:25;100524.44;;;38.29;42.70
74230;BME280;62589;12.568;99.958;2022-11-30T08:53:52;100510.78;;;38.31;43.89
74230;BME280;62589;12.568;99.958;2022-11-30T08:56:20;100515.94;;;38.33;43.36
74230;BME280;62589;12.568;99.958;2022-11-30T08:58:49;100514.72;;;38.34;43.23
74230;BME280;62589;12.568;99.958;2022-11-30T09:01:21;100517.78;;;38.23;42.78
74230;BME280;62589;12.568;99.958;2022-11-30T09:03:51;100519.34;;;38.24;42.49
74230;BME280;62589;12.568;99.958;2022-11-30T09:06:26;100521.50;;;38.16;42.46
74230;BME280;62589;12.568;99.958;2022-11-30T09:08:55;100522.66;;;38.19;42.11
74230;BME280;62589;12.568;99.958;2022-11-30T09:11:27;100515.47;;;38.18;43.12
74230;BME280;62589;12.568;99.958;2022-11-30T09:13:57;100514.97;;;38.23;43.06
74230;BME280;62589;12.568;99.958;2022-11-30T09:16:25;100521.50;;;38.16;43.01
74230;BME280;62589;12.568;99.958;2022-11-30T09:18:53;100509.50;;;38.16;42.98
74230;BME280;62589;12.568;99.958;2022-11-30T09:21:22;100520.00;;;38.12;43.25
74230;BME280;62589;12.568;99.958;2022-11-30T09:23:50;100530.44;;;38.08;43.18
74230;BME280;62589;12.568;99.958;2022-11-30T09:26:19;100540.06;;;38.07;43.53
74230;BME280;62589;12.568;99.958;2022-11-30T09:28:48;100546.19;;;38.02;43.92
74230;BME280;62589;12.568;99.958;2022-11-30T09:31:20;100563.88;;;37.99;43.45
74230;BME280;62589;12.568;99.958;2022-11-30T09:33:48;100555.47;;;37.99;43.79
74230;BME280;62589;12.568;99.958;2022-11-30T09:36:17;100555.53;;;37.95;43.82
74230;BME280;62589;12.568;99.958;2022-11-30T09:38:45;100556.00;;;37.90;43.63
74230;BME280;62589;12.568;99.958;2022-11-30T09:49:42;100549.41;;;37.80;43.70
74230;BME280;62589;12.568;99.958;2022-11-30T09:55:01;100551.97;;;37.71;43.94
74230;BME280;62589;12.568;99.958;2022-11-30T09:57:44;100553.22;;;37.67;44.27
74230;BME280;62589;12.568;99.958;2022-11-30T10:00:18;100560.16;;;37.59;43.98
74230;BME280;62589;12.568;99.958;2022-11-30T10:02:49;100560.22;;;37.55;43.65
74230;BME280;62589;12.568;99.958;2022-11-30T10:05:21;100571.97;;;37.46;44.13
74230;BME280;62589;12.568;99.958;2022-11-30T10:08:12;100561.97;;;37.45;44.12
74230;BME280;62589;12.568;99.958;2022-11-30T10:11:12;100554.88;;;37.41;44.67
74230;BME280;62589;12.568;99.958;2022-11-30T10:17:00;100564.41;;;37.43;45.02
74230;BME280;62589;12.568;99.958;2022-11-30T10:23:01;100574.81;;;37.43;46.21
74230;BME280;62589;12.568;99.958;2022-11-30T10:31:00;100574.56;;;37.34;46.94
74230;BME280;62589;12.568;99.958;2022-11-30T10:33:37;100575.84;;;37.29;47.30
74230;BME280;62589;12.568;99.958;2022-11-30T10:36:12;100580.28;;;37.27;46.97
74230;BME280;62589;12.568;99.958;2022-11-30T10:38:46;100585.50;;;37.25;47.40
74230;BME280;62589;12.568;99.958;2022-11-30T10:41:21;100583.94;;;37.24;47.72
74230;BME280;62589;12.568;99.958;2022-11-30T10:46:55;100594.00;;;37.17;47.24
74230;BME280;62589;12.568;99.958;2022-11-30T10:49:26;100592.03;;;37.14;47.07
74230;BME280;62589;12.568;99.958;2022-11-30T10:52:00;100608.09;;;37.10;47.19
74230;BME280;62589;12.568;99.958;2022-11-30T10:54:29;100608.09;;;37.10;47.43
74230;BME280;62589;12.568;99.958;2022-11-30T10:56:58;100615.31;;;37.08;47.61
74230;BME280;62589;12.568;99.958;2022-11-30T10:59:52;100612.47;;;37.11;47.77
74230;BME280;62589;12.568;99.958;2022-11-30T11:02:36;100616.97;;;37.05;47.94
74230;BME280;62589;12.568;99.958;2022-11-30T11:05:14;100611.03;;;37.00;47.40
74230;BME280;62589;12.568;99.958;2022-11-30T11:07:49;100623.88;;;36.97;46.81
74230;BME280;62589;12.568;99.958;2022-11-30T11:10:19;100641.13;;;36.92;46.43
74230;BME280;62589;12.568;99.958;2022-11-30T11:12:52;100636.41;;;36.86;46.23
74230;BME280;62589;12.568;99.958;2022-11-30T11:15:27;100644.84;;;36.82;46.24
74230;BME280;62589;12.568;99.958;2022-11-30T11:18:27;100650.53;;;36.78;45.99
74230;BME280;62589;12.568;99.958;2022-11-30T11:21:20;100650.19;;;36.73;46.19
74230;BME280;62589;12.568;99.958;2022-11-30T11:23:51;100654.59;;;36.67;46.29
74230;BME280;62589;12.568;99.958;2022-11-30T11:26:27;100657.44;;;36.63;45.95
74230;BME280;62589;12.568;99.958;2022-11-30T11:28:56;100657.13;;;36.58;45.87
74230;BME280;62589;12.568;99.958;2022-11-30T11:31:44;100652.75;;;36.57;46.32
74230;BME280;62589;12.568;99.958;2022-11-30T11:34:26;100660.78;;;36.51;46.44
74230;BME280;62589;12.568;99.958;2022-11-30T11:37:13;100648.47;;;36.45;46.61
74230;BME280;62589;12.568;99.958;2022-11-30T11:39:41;100638.50;;;36.44;46.73
74230;BME280;62589;12.568;99.958;2022-11-30T11:42:19;100646.50;;;36.42;46.86
74230;BME280;62589;12.568;99.958;2022-11-30T11:44:51;100652.91;;;36.39;47.18
74230;BME280;62589;12.568;99.958;2022-11-30T11:47:38;100660.44;;;36.45;47.54
74230;BME280;62589;12.568;99.958;2022-11-30T11:53:12;100655.31;;;36.40;48.23
74230;BME280;62589;12.568;99.958;2022-11-30T11:55:44;100654.56;;;36.36;48.41
74230;BME280;62589;12.568;99.958;2022-11-30T11:58:18;100666.16;;;36.35;48.57
74230;BME280;62589;12.568;99.958;2022-11-30T12:00:47;100674.97;;;36.33;48.71
74230;BME280;62589;12.568;99.958;2022-11-30T12:03:29;100682.56;;;36.33;48.81
74230;BME280;62589;12.568;99.958;2022-11-30T12:06:04;100688.97;;;36.30;48.30
74230;BME280;62589;12.568;99.958;2022-11-30T12:08:49;100693.34;;;36.31;48.27
74230;BME280;62589;12.568;99.958;2022-11-30T12:14:11;100693.38;;;36.24;47.85
74230;BME280;62589;12.568;99.958;2022-11-30T12:20:16;100704.19;;;36.25;47.42
74230;BME280;62589;12.568;99.958;2022-11-30T12:25:38;100700.63;;;36.17;48.60
74230;BME280;62589;12.568;99.958;2022-11-30T12:28:26;100703.41;;;36.17;48.82
74230;BME280;62589;12.568;99.958;2022-11-30T12:31:17;100720.19;;;36.17;49.39
74230;BME280;62589;12.568;99.958;2022-11-30T12:37:16;100723.88;;;36.11;49.16
74230;BME280;62589;12.568;99.958;2022-11-30T12:43:21;100739.06;;;36.06;49.31
74230;BME280;62589;12.568;99.958;2022-11-30T12:45:47;100740.69;;;36.00;49.23
74230;BME280;62589;12.568;99.958;2022-11-30T12:51:32;100765.84;;;36.00;49.61
74230;BME280;62589;12.568;99.958;2022-11-30T12:57:03;100783.91;;;35.89;49.56
74230;BME280;62589;12.568;99.958;2022-11-30T13:02:47;100780.75;;;35.83;49.45
74230;BME280;62589;12.568;99.958;2022-11-30T13:05:23;100777.56;;;35.77;49.29
74230;BME280;62589;12.568;99.958;2022-11-30T13:07:59;100779.56;;;35.77;49.13
74230;BME280;62589;12.568;99.958;2022-11-30T13:10:40;100788.34;;;35.75;48.84
74230;BME280;62589;12.568;99.958;2022-11-30T13:13:21;100793.56;;;35.73;48.77
74230;BME280;62589;12.568;99.958;2022-11-30T13:15:50;100799.97;;;35.70;48.38
74230;BME280;62589;12.568;99.958;2022-11-30T13:18:19;100806.34;;;35.67;49.17
74230;BME280;62589;12.568;99.958;2022-11-30T13:27:05;100816.75;;;35.60;49.00
74230;BME280;62589;12.568;99.958;2022-11-30T13:32:33;100828.72;;;35.57;48.85
74230;BME280;62589;12.568;99.958;2022-11-30T13:38:00;100830.38;;;35.51;49.23
74230;BME280;62589;12.568;99.958;2022-11-30T13:40:27;100824.78;;;35.51;49.31
74230;BME280;62589;12.568;99.958;2022-11-30T13:42:55;100824.81;;;35.47;50.17
74230;BME280;62589;12.568;99.958;2022-11-30T13:45:39;100837.56;;;35.48;49.57
74230;BME280;62589;12.568;99.958;2022-11-30T13:48:30;100833.59;;;35.45;49.91
74230;BME280;62589;12.568;99.958;2022-11-30T13:50:58;100824.81;;;35.40;49.70
74230;BME280;62589;12.568;99.958;2022-11-30T13:53:27;100823.22;;;35.39;49.69
74230;BME280;62589;12.568;99.958;2022-11-30T13:55:56;100827.63;;;35.36;49.58
74230;BME280;62589;12.568;99.958;2022-11-30T13:58:24;100837.19;;;35.35;49.73
74230;BME280;62589;12.568;99.958;2022-11-30T14:06:54;100848.00;;;35.30;50.69
74230;BME280;62589;12.568;99.958;2022-11-30T14:09:53;100845.63;;;35.28;50.96
74230;BME280;62589;12.568;99.958;2022-11-30T14:15:50;100831.63;;;35.25;49.65
74230;BME280;62589;12.568;99.958;2022-11-30T14:18:36;100833.22;;;35.26;49.77
74230;BME280;62589;12.568;99.958;2022-11-30T14:21:18;100835.63;;;35.20;50.99
74230;BME280;62589;12.568;99.958;2022-11-30T14:24:00;100840.41;;;35.16;50.63
74230;BME280;62589;12.568;99.958;2022-11-30T14:26:47;100844.41;;;35.19;51.28
74230;BME280;62589;12.568;99.958;2022-11-30T14:29:24;100852.81;;;35.11;51.58